Time;durP1;ratioP1;P1;durP2;ratioP2;P2;SDS_P1;SDS_P2;PMS_P1;PMS_P2;Temp;Humidity;BMP_temperature;BMP_pressure;BME280_temperature;BME280_humidity;BME280_pressure;Samples;Min_cycle;Max_cycle;Signal;HPM_P1;HPM_P2
2023/07/17 00:00:52;;;;;;;6.68;3.65;;;;;;;16.61;90.04;101490.69;4914112;29;20040;-52
2023/07/17 00:03:17;;;;;;;8.68;3.58;;;;;;;16.54;89.52;101495.03;4915372;29;20024;-52
2023/07/17 00:05:42;;;;;;;7.13;3.55;;;;;;;16.52;87.45;101494.13;4913611;29;20044;-52
2023/07/17 00:08:10;;;;;;;6.25;3.38;;;;;;;16.52;89.04;101491.50;4914099;29;20028;-52
2023/07/17 00:10:37;;;;;;;8.98;3.95;;;;;;;16.46;90.86;101487.06;4913976;29;20079;-51
2023/07/17 00:13:02;;;;;;;8.70;3.58;;;;;;;16.48;90.40;101492.31;4914183;29;20032;-52
2023/07/17 00:15:27;;;;;;;5.43;3.58;;;;;;;16.45;89.72;101490.56;4913815;29;20040;-52
2023/07/17 00:17:53;;;;;;;8.90;4.00;;;;;;;16.40;90.99;101487.00;4912808;29;20028;-52
2023/07/17 00:20:18;;;;;;;7.07;3.72;;;;;;;16.41;89.88;101496.66;4914220;29;20035;-52
2023/07/17 00:22:43;;;;;;;6.82;3.30;;;;;;;16.35;89.27;101488.69;4915621;29;20403;-51
2023/07/17 00:25:09;;;;;;;7.93;3.67;;;;;;;16.34;90.49;101493.09;4915026;29;20119;-52
2023/07/17 00:27:35;;;;;;;7.50;4.00;;;;;;;16.36;88.88;101484.34;4906202;29;20032;-52
2023/07/17 00:30:00;;;;;;;8.00;3.72;;;;;;;16.33;90.24;101491.31;4915594;29;20099;-52
2023/07/17 00:32:26;;;;;;;7.40;3.70;;;;;;;16.30;89.42;101491.28;4915162;29;20030;-52
2023/07/17 00:34:51;;;;;;;6.60;3.60;;;;;;;16.32;89.53;101493.91;4898036;29;20032;-52
2023/07/17 00:37:16;;;;;;;8.68;3.97;;;;;;;16.30;90.40;101493.91;4914901;29;20602;-52
2023/07/17 00:39:41;;;;;;;6.85;3.75;;;;;;;16.26;90.42;101496.50;4915528;29;20087;-52
2023/07/17 00:42:07;;;;;;;7.68;3.65;;;;;;;16.24;88.38;101498.25;4915289;29;20487;-52
2023/07/17 00:44:35;;;;;;;6.70;3.40;;;;;;;16.21;89.62;101503.47;4914491;29;20028;-51
2023/07/17 00:47:01;;;;;;;7.05;3.70;;;;;;;16.12;90.92;101497.25;4914957;29;20435;-52
2023/07/17 00:49:29;;;;;;;7.60;3.70;;;;;;;16.11;90.77;101500.72;4913712;29;20490;-51
2023/07/17 00:51:56;;;;;;;6.90;4.18;;;;;;;16.09;90.61;101509.44;4912649;29;20039;-51
2023/07/17 00:54:21;;;;;;;5.45;3.33;;;;;;;16.06;90.88;101510.31;4912794;29;20495;-51
2023/07/17 00:56:47;;;;;;;7.03;3.47;;;;;;;15.97;91.43;101511.09;4914475;29;20040;-52
2023/07/17 00:59:13;;;;;;;8.20;3.72;;;;;;;15.93;91.10;101514.53;4914151;29;20032;-52
2023/07/17 01:01:41;;;;;;;7.28;3.63;;;;;;;15.92;91.45;101519.78;4911754;29;20028;-53
2023/07/17 01:04:07;;;;;;;7.38;3.58;;;;;;;15.85;92.12;101515.31;4911800;29;20028;-52
2023/07/17 01:06:38;;;;;;;7.35;3.78;;;;;;;15.84;92.04;101516.16;4914603;29;20491;-52
2023/07/17 01:09:04;;;;;;;7.55;4.13;;;;;;;15.76;91.71;101511.66;4913305;29;20032;-51
2023/07/17 01:11:29;;;;;;;8.48;3.67;;;;;;;15.75;92.53;101522.16;4912486;29;20036;-52
2023/07/17 01:13:55;;;;;;;7.97;3.92;;;;;;;15.74;92.84;101516.03;4912555;29;20035;-52
2023/07/17 01:16:20;;;;;;;6.28;3.50;;;;;;;15.73;92.39;101519.50;4913570;29;20028;-53
2023/07/17 01:18:45;;;;;;;8.10;3.80;;;;;;;15.75;91.95;101516.91;4913699;29;20083;-52
2023/07/17 01:21:17;;;;;;;9.77;4.40;;;;;;;15.73;90.72;101516.88;4913906;29;20036;-52
2023/07/17 01:23:42;;;;;;;6.57;3.53;;;;;;;15.72;91.70;101523.00;4913989;29;20067;-52
2023/07/17 01:26:12;;;;;;;7.57;3.90;;;;;;;15.70;91.61;101527.34;4914793;29;20067;-51
2023/07/17 01:28:38;;;;;;;9.13;3.80;;;;;;;15.68;91.75;101529.06;4911993;29;20032;-51
2023/07/17 01:31:04;;;;;;;7.60;3.38;;;;;;;15.64;89.01;101529.88;4913733;29;20454;-51
2023/07/17 01:33:29;;;;;;;8.73;4.05;;;;;;;15.64;91.07;101540.38;4913900;29;20043;-52
2023/07/17 01:35:55;;;;;;;8.00;3.85;;;;;;;15.63;92.34;101542.13;4914543;29;20021;-52
2023/07/17 01:38:20;;;;;;;7.53;3.50;;;;;;;15.60;91.92;101539.47;4914655;29;20434;-52
2023/07/17 01:40:45;;;;;;;6.47;3.60;;;;;;;15.52;92.83;101538.47;4914408;29;20032;-52
2023/07/17 01:43:10;;;;;;;7.68;3.70;;;;;;;15.52;92.10;101532.34;4913581;29;20094;-52
2023/07/17 01:45:36;;;;;;;7.85;3.75;;;;;;;15.53;92.84;101531.50;4902089;29;20064;-52
2023/07/17 01:48:01;;;;;;;6.82;3.88;;;;;;;15.51;93.12;101528.84;4913968;29;20043;-52
2023/07/17 01:50:26;;;;;;;8.43;4.25;;;;;;;15.45;93.87;101524.38;4913451;29;20028;-52
2023/07/17 01:52:52;;;;;;;8.57;4.10;;;;;;;15.39;93.55;101524.28;4913942;29;20032;-52
2023/07/17 01:55:17;;;;;;;6.75;3.80;;;;;;;15.40;93.87;101533.94;4912710;29;20024;-52
2023/07/17 01:57:42;;;;;;;8.80;4.25;;;;;;;15.35;94.17;101530.38;4913072;29;20116;-52
2023/07/17 02:00:12;;;;;;;8.00;4.20;;;;;;;15.32;93.43;101519.78;4911015;29;20509;-52
2023/07/17 02:02:37;;;;;;;9.50;4.28;;;;;;;15.30;94.34;101532.03;4908564;29;20032;-52
2023/07/17 02:05:03;;;;;;;7.57;4.10;;;;;;;15.31;94.01;101531.19;4912587;29;20426;-52
2023/07/17 02:07:28;;;;;;;7.95;4.10;;;;;;;15.31;93.43;101528.56;4912848;29;20035;-52
2023/07/17 02:09:53;;;;;;;10.27;4.03;;;;;;;15.29;94.15;101527.63;4912315;29;20031;-52
2023/07/17 02:12:18;;;;;;;9.93;4.15;;;;;;;15.21;94.42;101524.03;4894998;29;20054;-52
2023/07/17 02:14:44;;;;;;;8.43;4.03;;;;;;;15.16;94.82;101529.19;4911807;29;20028;-51
2023/07/17 02:17:09;;;;;;;7.65;4.07;;;;;;;15.10;94.52;101532.59;4912050;29;20399;-52
2023/07/17 02:19:34;;;;;;;8.70;4.10;;;;;;;15.09;94.85;101524.69;4911575;29;20118;-52
2023/07/17 02:22:00;;;;;;;10.32;4.15;;;;;;;15.10;93.85;101531.72;4912674;29;20490;-52
2023/07/17 02:24:25;;;;;;;6.28;3.60;;;;;;;15.10;94.62;101537.84;4913773;29;20024;-52
2023/07/17 02:26:50;;;;;;;7.22;3.60;;;;;;;15.10;93.76;101534.34;4913148;29;20039;-51
2023/07/17 02:29:16;;;;;;;7.55;4.32;;;;;;;15.09;94.09;101545.69;4913834;29;20024;-51
2023/07/17 02:31:41;;;;;;;5.97;3.42;;;;;;;15.08;94.25;101538.69;4914075;29;20024;-52
2023/07/17 02:34:07;;;;;;;9.57;4.05;;;;;;;15.03;93.55;101540.34;4913872;29;20024;-52
2023/07/17 02:36:32;;;;;;;7.78;3.33;;;;;;;15.00;91.94;101535.94;4912479;29;20137;-51
2023/07/17 02:38:58;;;;;;;7.32;3.65;;;;;;;14.95;93.35;101541.09;4913804;29;20028;-51
2023/07/17 02:41:23;;;;;;;8.43;3.63;;;;;;;14.97;94.67;101540.25;4912736;29;20087;-52
2023/07/17 02:43:48;;;;;;;9.30;3.80;;;;;;;14.92;93.10;101551.56;4914076;29;20328;-52
2023/07/17 02:46:13;;;;;;;6.50;3.70;;;;;;;14.89;94.66;101542.75;4913776;29;20070;-52
2023/07/17 02:48:39;;;;;;;6.40;3.80;;;;;;;14.90;94.99;101549.75;4913702;29;20035;-51
2023/07/17 02:51:04;;;;;;;7.50;3.50;;;;;;;14.85;95.07;101547.06;4913923;29;20047;-52
2023/07/17 02:53:30;;;;;;;8.07;3.80;;;;;;;14.88;94.82;101551.47;4910757;29;20028;-52
2023/07/17 02:55:55;;;;;;;6.85;3.60;;;;;;;14.86;94.45;101545.31;4895354;29;20052;-52
2023/07/17 02:58:20;;;;;;;9.32;3.70;;;;;;;14.81;93.61;101549.59;4910439;29;20087;-52
2023/07/17 03:00:46;;;;;;;5.80;2.92;;;;;;;14.79;94.10;101554.84;4911012;29;20063;-52
2023/07/17 03:03:11;;;;;;;8.98;3.95;;;;;;;14.77;94.42;101557.44;4913428;29;20115;-52
2023/07/17 03:05:36;;;;;;;8.65;3.90;;;;;;;14.75;93.26;101556.50;4912997;29;20060;-51
2023/07/17 03:08:02;;;;;;;8.02;3.70;;;;;;;14.71;94.28;101565.16;4910716;29;20036;-52
2023/07/17 03:10:29;;;;;;;7.32;3.78;;;;;;;14.67;94.85;101567.72;4906137;29;20024;-52
2023/07/17 03:12:55;;;;;;;7.28;3.20;;;;;;;14.63;94.75;101569.41;4913100;29;20032;-51
2023/07/17 03:15:20;;;;;;;8.05;3.80;;;;;;;14.60;94.49;101575.44;4914299;29;20447;-52
2023/07/17 03:17:45;;;;;;;8.20;3.38;;;;;;;14.58;95.52;101578.88;4915512;29;20032;-51
2023/07/17 03:20:11;;;;;;;7.22;3.70;;;;;;;14.56;95.28;101576.22;4915387;29;20040;-52
2023/07/17 03:22:37;;;;;;;9.00;3.70;;;;;;;14.54;95.56;101575.34;4913722;29;20459;-52
2023/07/17 03:25:05;;;;;;;6.78;3.13;;;;;;;14.53;96.11;101580.56;4903174;29;20403;-52
2023/07/17 03:27:30;;;;;;;7.07;3.30;;;;;;;14.56;94.65;101576.22;4916726;29;20050;-52
2023/07/17 03:29:55;;;;;;;8.05;3.17;;;;;;;14.56;94.59;101573.59;4915772;29;20024;-52
2023/07/17 03:32:21;;;;;;;7.40;3.45;;;;;;;14.56;95.13;101571.00;4916921;29;20032;-52
2023/07/17 03:34:46;;;;;;;8.73;3.47;;;;;;;14.50;95.51;101568.25;4915502;29;20450;-52
2023/07/17 03:37:12;;;;;;;7.20;2.92;;;;;;;14.50;95.08;101578.75;4915444;29;20051;-52
2023/07/17 03:39:37;;;;;;;7.03;3.60;;;;;;;14.49;95.78;101583.97;4915468;29;20103;-52
2023/07/17 03:42:04;;;;;;;6.18;3.40;;;;;;;14.44;94.79;101576.88;4914735;29;20024;-52
2023/07/17 03:44:29;;;;;;;6.93;3.30;;;;;;;14.42;95.37;101567.22;4913704;29;20027;-52
2023/07/17 03:46:55;;;;;;;8.68;3.40;;;;;;;14.36;95.34;101575.84;4914179;29;20043;-52
2023/07/17 03:49:20;;;;;;;9.93;3.75;;;;;;;14.37;94.80;101574.13;4915275;29;20036;-52
2023/07/17 03:51:45;;;;;;;6.95;3.28;;;;;;;14.37;95.03;101572.38;4915154;29;20032;-52
2023/07/17 03:54:11;;;;;;;8.77;3.75;;;;;;;14.33;95.69;101577.53;4902971;29;20032;-52
2023/07/17 03:56:39;;;;;;;6.88;3.00;;;;;;;14.32;95.80;101584.50;4914358;29;20043;-52
2023/07/17 03:59:04;;;;;;;6.72;3.50;;;;;;;14.25;95.23;101594.00;4914316;29;20111;-52
2023/07/17 04:01:29;;;;;;;8.63;3.40;;;;;;;14.23;96.44;101586.94;4914996;29;20147;-52
2023/07/17 04:03:55;;;;;;;7.38;3.20;;;;;;;14.22;95.15;101600.88;4914753;29;20028;-52
2023/07/17 04:06:20;;;;;;;7.90;3.42;;;;;;;14.20;96.03;101592.13;4914820;29;20083;-52
2023/07/17 04:08:45;;;;;;;6.68;3.33;;;;;;;14.21;95.05;101593.91;4913966;29;20028;-51
2023/07/17 04:11:11;;;;;;;7.35;3.45;;;;;;;14.21;96.08;101599.16;4912352;29;20032;-52
2023/07/17 04:13:36;;;;;;;8.25;3.35;;;;;;;14.21;95.81;101599.16;4915392;29;20102;-53
2023/07/17 04:16:01;;;;;;;9.65;3.83;;;;;;;14.18;95.65;101599.06;4912910;29;20031;-52
2023/07/17 04:18:27;;;;;;;9.25;3.63;;;;;;;14.18;95.63;101596.44;4912882;29;20148;-52
2023/07/17 04:20:52;;;;;;;5.75;3.08;;;;;;;14.20;94.94;101602.63;4915044;29;20398;-52
2023/07/17 04:23:17;;;;;;;8.32;3.60;;;;;;;14.20;95.53;101610.47;4915102;29;20410;-52
2023/07/17 04:25:42;;;;;;;9.13;3.30;;;;;;;14.15;93.66;101606.84;4914264;29;20483;-52
2023/07/17 04:28:08;;;;;;;8.75;4.10;;;;;;;14.14;95.62;101605.13;4915781;29;20075;-51
2023/07/17 04:30:36;;;;;;;8.13;3.88;;;;;;;14.17;95.75;101618.28;4915605;29;20024;-51
2023/07/17 04:33:02;;;;;;;8.77;3.80;;;;;;;14.15;95.27;101609.47;4915773;29;20040;-52
2023/07/17 04:35:27;;;;;;;7.72;3.83;;;;;;;14.17;95.81;101619.16;4913268;29;20081;-51
2023/07/17 04:37:55;;;;;;;10.13;4.10;;;;;;;14.16;95.47;101620.00;4914992;29;20524;-52
2023/07/17 04:40:20;;;;;;;8.95;4.15;;;;;;;14.18;95.73;101626.16;4915436;29;20032;-52
2023/07/17 04:42:45;;;;;;;10.20;3.72;;;;;;;14.13;94.67;101632.16;4915477;29;20550;-52
2023/07/17 04:45:12;;;;;;;9.43;4.15;;;;;;;14.17;96.11;101634.00;4914635;29;20068;-51
2023/07/17 04:47:37;;;;;;;10.82;4.22;;;;;;;14.18;95.03;101638.38;4915145;29;20039;-52
2023/07/17 04:50:03;;;;;;;11.93;4.25;;;;;;;14.17;94.10;101634.88;4915452;29;20024;-52
2023/07/17 04:52:29;;;;;;;7.78;3.85;;;;;;;14.21;95.51;101644.59;4914641;29;20032;-52
2023/07/17 04:54:54;;;;;;;12.10;4.50;;;;;;;14.20;93.65;101640.19;4914538;29;20376;-52
2023/07/17 04:57:21;;;;;;;8.55;3.90;;;;;;;14.22;95.29;101640.22;4896263;29;20043;-51
2023/07/17 04:59:46;;;;;;;10.43;4.25;;;;;;;14.19;95.31;101641.06;4913621;29;20031;-52
2023/07/17 05:02:11;;;;;;;8.98;4.03;;;;;;;14.21;95.91;101641.09;4913885;29;20032;-52
2023/07/17 05:04:37;;;;;;;9.82;4.35;;;;;;;14.23;95.82;101642.88;4913817;29;20523;-52
2023/07/17 05:07:02;;;;;;;11.05;4.55;;;;;;;14.23;95.99;101640.25;4914315;29;20847;-52
2023/07/17 05:09:27;;;;;;;10.23;4.32;;;;;;;14.24;96.13;101641.16;4911556;29;20092;-51
2023/07/17 05:11:54;;;;;;;9.77;4.70;;;;;;;14.25;96.17;101643.78;4913357;29;20055;-52
2023/07/17 05:14:19;;;;;;;9.23;4.07;;;;;;;14.27;95.55;101649.06;4913722;29;20032;-52
2023/07/17 05:16:45;;;;;;;11.25;4.85;;;;;;;14.24;95.81;101647.25;4914585;29;20607;-52
2023/07/17 05:19:10;;;;;;;12.40;4.30;;;;;;;14.26;95.23;101648.19;4896099;29;20036;-52
2023/07/17 05:21:35;;;;;;;13.52;4.43;;;;;;;14.31;95.83;101650.91;4913695;29;20087;-51
2023/07/17 05:24:01;;;;;;;10.25;4.63;;;;;;;14.33;95.05;101657.06;4913940;29;20376;-51
2023/07/17 05:26:26;;;;;;;12.13;4.70;;;;;;;14.39;94.97;101651.94;4913232;29;20514;-52
2023/07/17 05:28:51;;;;;;;9.93;4.13;;;;;;;14.40;95.40;101653.72;4913093;29;20550;-51
2023/07/17 05:31:17;;;;;;;10.13;4.72;;;;;;;14.42;95.69;101651.13;4914034;29;20114;-52
2023/07/17 05:33:42;;;;;;;10.40;4.65;;;;;;;14.44;94.96;101660.78;4913484;29;20036;-51
2023/07/17 05:36:07;;;;;;;9.80;4.35;;;;;;;14.51;94.94;101667.06;4913240;29;20023;-52
2023/07/17 05:38:33;;;;;;;9.55;4.20;;;;;;;14.55;95.51;101668.88;4911767;29;20032;-52
2023/07/17 05:41:00;;;;;;;10.05;4.38;;;;;;;14.59;95.07;101672.47;4913560;29;20111;-52
2023/07/17 05:43:25;;;;;;;12.55;4.90;;;;;;;14.64;95.77;101670.81;4913987;29;20039;-51
2023/07/17 05:45:51;;;;;;;12.68;4.50;;;;;;;14.70;94.13;101675.31;4918733;29;20383;-52
2023/07/17 05:50:49;;;;;;;11.82;4.75;;;;;;;14.76;95.04;101678.09;5185480;23;20139;-51
2023/07/17 05:53:14;;;;;;;10.57;4.32;;;;;;;14.80;94.46;101679.00;4913312;29;20376;-51
2023/07/17 05:55:41;;;;;;;13.02;4.53;;;;;;;14.86;94.53;101684.38;4913578;29;20038;-51
2023/07/17 05:58:06;;;;;;;10.25;4.70;;;;;;;14.90;94.67;101675.72;4911541;29;20024;-51
2023/07/17 06:00:32;;;;;;;11.18;4.80;;;;;;;14.96;93.73;101686.31;4912965;29;20402;-52
2023/07/17 06:02:58;;;;;;;13.18;4.43;;;;;;;15.05;92.83;101680.38;4912787;29;20036;-52
2023/07/17 06:05:23;;;;;;;11.02;4.78;;;;;;;15.08;93.46;101675.19;4912577;29;20104;-52
2023/07/17 06:07:48;;;;;;;13.63;4.18;;;;;;;15.18;92.70;101684.09;4913572;29;20530;-52
2023/07/17 06:10:14;;;;;;;9.93;4.80;;;;;;;15.23;91.94;101688.56;4912727;29;20100;-51
2023/07/17 06:12:40;;;;;;;10.13;4.25;;;;;;;15.28;92.87;101693.94;4911180;29;20036;-50
2023/07/17 06:15:06;;;;;;;13.02;4.47;;;;;;;15.34;92.60;101688.78;4912509;29;20028;-52
2023/07/17 06:17:32;;;;;;;9.77;4.65;;;;;;;15.44;91.99;101689.81;4912307;29;20055;-50
2023/07/17 06:19:57;;;;;;;9.57;4.72;;;;;;;15.50;90.97;101689.00;4913387;29;20387;-51
2023/07/17 06:22:22;;;;;;;14.80;4.57;;;;;;;15.56;89.88;101697.03;4912801;29;20036;-52
2023/07/17 06:24:48;;;;;;;12.57;4.72;;;;;;;15.57;90.38;101696.16;4913657;29;20039;-52
2023/07/17 06:27:13;;;;;;;12.13;5.00;;;;;;;15.61;89.67;101696.25;4913941;29;20080;-52
2023/07/17 06:29:38;;;;;;;14.25;4.75;;;;;;;15.65;90.15;101694.53;4913903;29;20137;-52
2023/07/17 06:32:04;;;;;;;11.27;4.70;;;;;;;15.70;89.18;101706.03;4913795;29;20479;-52
2023/07/17 06:34:29;;;;;;;11.00;5.10;;;;;;;15.72;89.48;101713.94;4902614;29;20052;-52
2023/07/17 06:36:55;;;;;;;13.20;4.50;;;;;;;15.77;88.31;101710.50;4913186;29;20510;-52
2023/07/17 06:39:20;;;;;;;8.35;4.38;;;;;;;15.87;88.89;101713.31;4913582;29;20032;-52
2023/07/17 06:41:45;;;;;;;10.00;4.63;;;;;;;15.94;87.29;101715.19;4913853;29;20042;-52
2023/07/17 06:44:10;;;;;;;14.30;5.13;;;;;;;15.96;87.64;101714.34;4913782;29;20052;-52
2023/07/17 06:46:36;;;;;;;10.32;4.95;;;;;;;16.01;88.55;101716.16;4913746;29;20418;-52
2023/07/17 06:49:01;;;;;;;11.55;4.68;;;;;;;16.10;88.41;101719.78;4913220;29;20036;-52
2023/07/17 06:51:26;;;;;;;12.82;4.90;;;;;;;16.20;87.98;101731.34;4899971;29;20492;-52
2023/07/17 06:53:52;;;;;;;10.52;4.68;;;;;;;16.28;88.68;101737.59;4897555;29;20055;-52
2023/07/17 06:56:17;;;;;;;9.07;4.70;;;;;;;16.33;86.13;101735.91;4908054;29;20028;-52
2023/07/17 06:58:43;;;;;;;12.80;5.15;;;;;;;16.21;87.04;101733.13;4894339;29;20035;-52
2023/07/17 07:01:08;;;;;;;11.82;5.00;;;;;;;16.31;85.99;101734.13;4896477;29;20056;-52
2023/07/17 07:03:33;;;;;;;11.35;4.50;;;;;;;16.28;85.18;101736.69;4895453;29;20036;-53
2023/07/17 07:06:02;;;;;;;14.57;5.15;;;;;;;16.39;84.52;101729.84;4902128;29;20144;-52
2023/07/17 07:08:29;;;;;;;14.85;4.78;;;;;;;16.43;86.19;101736.06;4897914;29;20390;-52
2023/07/17 07:10:56;;;;;;;9.90;4.65;;;;;;;16.49;86.50;101744.88;4898379;29;20090;-52
2023/07/17 07:13:22;;;;;;;11.27;4.95;;;;;;;16.56;86.52;101737.97;4897418;29;20511;-52
2023/07/17 07:15:48;;;;;;;13.98;5.22;;;;;;;16.59;83.22;101748.53;4901993;29;20064;-52
2023/07/17 07:18:14;;;;;;;12.57;4.72;;;;;;;16.49;85.07;101749.28;4907941;29;20075;-52
2023/07/17 07:20:40;;;;;;;13.70;5.30;;;;;;;16.45;84.60;101753.63;4899832;29;20033;-52
2023/07/17 07:23:05;;;;;;;11.52;4.60;;;;;;;16.50;84.89;101757.19;4898155;29;20029;-52
2023/07/17 07:25:30;;;;;;;11.45;5.00;;;;;;;16.55;85.35;101749.34;4895504;29;20025;-52
2023/07/17 07:27:56;;;;;;;10.55;4.93;;;;;;;16.64;82.70;101754.75;4902074;29;20028;-52
2023/07/17 07:30:21;;;;;;;12.95;5.43;;;;;;;16.71;84.25;101755.69;4896171;29;20016;-52
2023/07/17 07:32:47;;;;;;;13.40;5.93;;;;;;;16.77;83.22;101758.44;4905398;29;20043;-52
2023/07/17 07:35:13;;;;;;;11.32;5.28;;;;;;;16.86;81.43;101763.81;4899507;29;20406;-52
2023/07/17 07:37:41;;;;;;;12.00;5.50;;;;;;;16.85;80.93;101769.03;4905620;29;20040;-52
2023/07/17 07:40:10;;;;;;;12.45;5.45;;;;;;;16.82;81.45;101775.16;4902780;29;20024;-52
2023/07/17 07:42:35;;;;;;;11.85;5.00;;;;;;;16.78;81.31;101773.34;4897788;29;20043;-51
2023/07/17 07:45:00;;;;;;;11.45;4.63;;;;;;;16.83;79.83;101770.78;4901949;29;20028;-52
2023/07/17 07:47:26;;;;;;;10.85;5.38;;;;;;;16.79;80.97;101772.47;4896533;29;20052;-53
2023/07/17 07:49:51;;;;;;;10.82;5.25;;;;;;;16.86;82.28;101779.59;4899814;29;20060;-53
2023/07/17 07:52:16;;;;;;;10.65;5.50;;;;;;;17.06;82.79;101773.75;4900079;29;20033;-52
2023/07/17 07:54:45;;;;;;;12.60;5.65;;;;;;;17.31;81.72;101784.53;4895836;29;20503;-52
2023/07/17 07:57:10;;;;;;;14.13;5.70;;;;;;;17.42;79.20;101777.63;4892402;29;20032;-52
2023/07/17 07:59:35;;;;;;;11.68;5.32;;;;;;;17.46;78.53;101787.31;4894228;29;20037;-52
2023/07/17 08:02:01;;;;;;;10.05;5.65;;;;;;;17.49;78.49;101778.56;4900143;29;20028;-53
2023/07/17 08:04:28;;;;;;;12.55;5.97;;;;;;;17.54;78.43;101785.66;4892184;29;20091;-53
2023/07/17 08:06:53;;;;;;;9.52;5.70;;;;;;;17.60;77.82;101776.94;4894832;29;20084;-53
2023/07/17 08:09:19;;;;;;;12.20;6.18;;;;;;;17.80;77.16;101789.38;4896510;29;20036;-53
2023/07/17 08:11:44;;;;;;;10.73;5.57;;;;;;;17.77;77.37;101790.28;4896575;29;20403;-52
2023/07/17 08:14:09;;;;;;;11.40;5.97;;;;;;;17.87;77.27;101792.13;4895444;29;20104;-52
2023/07/17 08:16:35;;;;;;;10.70;5.63;;;;;;;18.04;76.87;101786.13;4898828;29;20039;-53
2023/07/17 08:19:00;;;;;;;12.02;5.70;;;;;;;18.23;75.70;101797.69;4893963;29;20024;-53
2023/07/17 08:21:25;;;;;;;14.63;6.10;;;;;;;18.30;73.46;101793.34;4894849;29;20032;-52
2023/07/17 08:23:50;;;;;;;9.35;5.60;;;;;;;18.29;74.07;101796.84;4895699;29;20385;-53
2023/07/17 08:26:16;;;;;;;11.95;5.55;;;;;;;18.27;72.49;101794.19;4896130;29;20048;-53
2023/07/17 08:28:41;;;;;;;12.38;5.85;;;;;;;18.25;73.50;101802.09;4876751;29;20051;-53
2023/07/17 08:31:06;;;;;;;8.90;5.38;;;;;;;18.30;73.37;101798.63;4890636;29;20031;-53
2023/07/17 08:33:32;;;;;;;12.50;5.93;;;;;;;18.42;73.46;101790.78;4893826;29;20028;-53
2023/07/17 08:35:57;;;;;;;12.90;5.45;;;;;;;18.57;75.96;101800.56;4892428;29;20036;-52
2023/07/17 08:38:22;;;;;;;10.75;5.82;;;;;;;18.74;70.52;101798.00;4893151;29;20033;-53
2023/07/17 08:40:51;;;;;;;9.90;5.30;;;;;;;18.92;71.39;101808.69;4893767;29;20056;-53
2023/07/17 08:43:16;;;;;;;10.30;5.40;;;;;;;18.91;70.17;101806.91;4879435;29;20060;-53
2023/07/17 08:45:43;;;;;;;11.68;5.28;;;;;;;19.01;69.44;101807.84;4896292;29;20063;-53
2023/07/17 08:48:08;;;;;;;11.75;5.45;;;;;;;19.07;68.51;101806.97;4894860;29;20055;-53
2023/07/17 08:50:34;;;;;;;9.60;5.05;;;;;;;19.04;68.97;101806.97;4894735;29;20091;-53
2023/07/17 08:53:00;;;;;;;11.13;5.38;;;;;;;19.13;68.93;101801.72;4895580;29;20134;-53
2023/07/17 08:55:29;;;;;;;10.00;5.35;;;;;;;19.25;68.61;101809.69;4895568;29;20047;-53
2023/07/17 08:57:57;;;;;;;10.35;4.55;;;;;;;19.39;68.03;101808.84;4905420;29;20036;-53
2023/07/17 09:00:23;;;;;;;8.80;4.05;;;;;;;19.49;65.69;101801.81;4900236;29;20043;-53
2023/07/17 09:02:50;;;;;;;11.98;5.00;;;;;;;19.49;67.04;101810.63;4892554;29;20173;-54
2023/07/17 09:05:16;;;;;;;7.97;4.28;;;;;;;19.41;66.80;101796.53;4900100;29;20514;-53
2023/07/17 09:07:41;;;;;;;8.50;4.55;;;;;;;19.46;65.16;101797.41;4898160;29;20036;-53
2023/07/17 09:10:35;;;;;;;10.23;4.78;;;;;;;19.39;67.02;101809.75;4900668;29;20104;-53
2023/07/17 09:13:01;;;;;;;8.93;4.57;;;;;;;19.23;65.55;101803.53;4889027;29;20052;-52
2023/07/17 09:15:30;;;;;;;9.45;4.30;;;;;;;19.27;67.87;101804.41;4896205;29;20076;-53
2023/07/17 09:17:55;;;;;;;9.85;4.93;;;;;;;19.33;67.68;101804.41;4899919;29;20060;-53
2023/07/17 09:20:21;;;;;;;9.65;4.28;;;;;;;19.34;67.19;101805.31;4895984;29;20064;-53
2023/07/17 09:22:48;;;;;;;8.45;3.90;;;;;;;19.27;64.25;101810.56;4893759;29;20040;-53
2023/07/17 09:25:15;;;;;;;8.70;4.20;;;;;;;19.08;66.88;101806.09;4895305;29;20039;-53
2023/07/17 09:27:50;;;;;;;8.38;4.13;;;;;;;18.93;66.46;101814.88;4895727;29;20506;-53
2023/07/17 09:30:21;;;;;;;8.32;3.80;;;;;;;18.96;67.62;101808.69;4894925;29;20059;-53
2023/07/17 09:32:47;;;;;;;8.35;4.00;;;;;;;19.06;68.37;101799.91;4895184;29;20455;-53
2023/07/17 09:35:14;;;;;;;8.07;4.25;;;;;;;19.13;66.69;101806.13;4895812;29;20028;-53
2023/07/17 09:37:41;;;;;;;9.40;3.67;;;;;;;19.11;64.94;101809.63;4895841;29;20196;-54
2023/07/17 09:40:09;;;;;;;8.20;3.60;;;;;;;18.99;62.42;101803.41;4895589;29;20448;-54
2023/07/17 09:42:35;;;;;;;8.93;3.37;;;;;;;19.10;61.96;101817.56;4895809;29;20097;-54
2023/07/17 09:45:02;;;;;;;6.28;3.10;;;;;;;19.16;60.13;101817.59;4894295;29;20032;-54
2023/07/17 09:47:29;;;;;;;7.10;3.03;;;;;;;19.15;61.74;101810.53;4895420;29;20380;-54
2023/07/17 09:49:54;;;;;;;7.60;3.20;;;;;;;19.21;62.66;101818.47;4895209;29;20064;-54
2023/07/17 09:52:20;;;;;;;6.93;3.20;;;;;;;19.28;61.57;101814.09;4895347;29;20032;-53
2023/07/17 09:54:48;;;;;;;8.20;3.25;;;;;;;19.51;61.05;101819.44;4895393;29;20028;-54
2023/07/17 09:57:26;;;;;;;7.03;3.38;;;;;;;19.70;60.46;101808.91;4895517;29;20041;-54
2023/07/17 09:59:54;;;;;;;7.97;3.35;;;;;;;19.83;59.97;101805.44;4894566;29;20085;-54
2023/07/17 10:02:21;;;;;;;5.78;3.10;;;;;;;19.77;59.16;101810.69;4893833;29;20095;-53
2023/07/17 10:04:52;;;;;;;7.72;3.47;;;;;;;19.72;60.99;101812.44;4894378;29;20494;-52
2023/07/17 10:07:19;;;;;;;6.57;3.08;;;;;;;19.67;62.50;101819.47;4895167;29;20052;-53
2023/07/17 10:09:48;;;;;;;10.00;3.40;;;;;;;19.48;61.10;101822.09;4895438;29;20040;-53
2023/07/17 10:12:14;;;;;;;8.55;3.78;;;;;;;19.62;62.90;101815.06;4895360;29;20039;-53
2023/07/17 10:14:42;;;;;;;6.97;3.03;;;;;;;19.95;58.45;101816.00;4894352;29;20036;-52
2023/07/17 10:17:30;;;;;;;6.63;2.85;;;;;;;20.25;57.92;101803.66;4895145;29;20037;-53
2023/07/17 10:19:58;;;;;;;7.97;2.77;;;;;;;20.28;57.90;101802.75;4895353;29;20037;-54
2023/07/17 10:22:34;;;;;;;5.97;3.20;;;;;;;20.37;59.94;101808.03;4894924;29;20052;-53
2023/07/17 10:25:17;;;;;;;7.05;3.03;;;;;;;20.43;59.30;101812.44;4898083;29;20084;-54
2023/07/17 10:27:46;;;;;;;6.85;3.00;;;;;;;20.64;57.96;101807.09;4898163;29;20021;-54
2023/07/17 10:30:28;;;;;;;7.45;2.92;;;;;;;20.84;56.98;101809.72;4899002;29;20081;-54
2023/07/17 10:33:19;;;;;;;8.55;3.05;;;;;;;21.10;55.87;101807.81;4897697;29;20138;-54
2023/07/17 10:36:00;;;;;;;6.57;3.42;;;;;;;21.28;55.58;101814.81;4895020;29;20088;-54
2023/07/17 10:38:28;;;;;;;9.35;3.55;;;;;;;21.30;55.77;101813.91;4898847;29;20029;-53
2023/07/17 10:41:11;;;;;;;7.90;3.42;;;;;;;21.13;55.53;101808.72;4898153;29;20100;-54
2023/07/17 10:43:37;;;;;;;6.55;3.28;;;;;;;20.95;57.15;101819.38;4897735;29;20080;-54
2023/07/17 10:46:10;;;;;;;6.13;2.90;;;;;;;20.91;56.46;101821.16;4898178;29;20052;-54
2023/07/17 10:48:35;;;;;;;6.40;3.30;;;;;;;20.93;56.29;101814.09;4898374;29;20034;-54
2023/07/17 10:51:00;;;;;;;7.57;3.30;;;;;;;21.13;56.42;101805.16;4896488;29;20033;-54
2023/07/17 10:53:26;;;;;;;6.55;3.22;;;;;;;21.32;55.87;101813.88;4894367;29;20410;-54
2023/07/17 10:55:51;;;;;;;6.68;3.55;;;;;;;21.51;55.53;101812.06;4896484;29;20491;-54
2023/07/17 10:58:19;;;;;;;5.95;3.15;;;;;;;21.56;55.75;101804.94;4898321;29;20035;-54
2023/07/17 11:00:44;;;;;;;6.05;3.38;;;;;;;21.36;54.24;101805.03;4898244;29;20048;-54
2023/07/17 11:03:12;;;;;;;7.30;3.13;;;;;;;21.13;52.91;101800.75;4896221;29;20032;-54
2023/07/17 11:05:39;;;;;;;5.90;3.50;;;;;;;20.96;53.40;101803.47;4898304;29;20028;-54
2023/07/17 11:08:08;;;;;;;7.05;3.15;;;;;;;20.86;57.77;101804.41;4898570;29;20028;-54
2023/07/17 11:10:34;;;;;;;7.78;3.50;;;;;;;20.98;56.30;101799.03;4898316;29;20372;-54
2023/07/17 11:13:02;;;;;;;7.63;3.28;;;;;;;21.28;59.66;101802.44;4896770;29;20039;-54
2023/07/17 11:15:33;;;;;;;6.85;3.42;;;;;;;21.58;55.22;101803.19;4907358;29;20044;-54
2023/07/17 11:18:02;;;;;;;8.55;3.13;;;;;;;21.63;53.15;101809.31;4902124;29;20497;-54
2023/07/17 11:20:29;;;;;;;8.45;3.85;;;;;;;21.65;55.24;101794.28;4903856;29;20047;-53